Time;durP1;ratioP1;P1;durP2;ratioP2;P2;SDS_P1;SDS_P2;PMS_P1;PMS_P2;Temp;Humidity;BMP_temperature;BMP_pressure;BME280_temperature;BME280_humidity;BME280_pressure;Samples;Min_cycle;Max_cycle;Signal;HPM_P1;HPM_P2
2022/11/03 00:01:12;;;;;;;6.30;5.70;;;12.10;99.90;;;;;;5154831;27;20236;-77
2022/11/03 00:03:39;;;;;;;6.07;5.53;;;12.10;99.90;;;;;;5154211;27;20579;-76
2022/11/03 00:06:08;;;;;;;8.30;4.90;;;12.00;99.90;;;;;;5154364;27;20328;-80
2022/11/03 00:08:41;;;;;;;5.50;5.00;;;12.00;99.90;;;;;;5154730;27;20256;-80
2022/11/03 00:11:10;;;;;;;6.80;4.78;;;12.00;99.90;;;;;;5154672;27;20663;-80
2022/11/03 00:13:41;;;;;;;8.73;5.38;;;12.00;99.90;;;;;;5154150;27;20253;-77
2022/11/03 00:16:10;;;;;;;9.88;6.40;;;12.00;99.90;;;;;;5153549;27;20218;-77
2022/11/03 00:18:37;;;;;;;6.00;5.47;;;12.00;99.90;;;;;;5154711;27;20225;-76
2022/11/03 00:21:06;;;;;;;13.45;6.22;;;12.00;99.90;;;;;;5153829;27;20217;-77
2022/11/03 00:23:36;;;;;;;9.18;6.90;;;12.00;99.90;;;;;;5154621;27;20264;-76
2022/11/03 00:26:05;;;;;;;10.18;6.72;;;11.90;99.90;;;;;;5153794;27;20221;-79
2022/11/03 00:28:33;;;;;;;7.40;5.07;;;11.90;99.90;;;;;;5155311;27;20225;-80
2022/11/03 00:31:01;;;;;;;5.93;4.90;;;11.90;99.90;;;;;;5154141;27;20225;-77
2022/11/03 00:33:31;;;;;;;5.55;4.70;;;11.90;99.90;;;;;;5155164;27;20684;-80
2022/11/03 00:36:00;;;;;;;10.85;5.15;;;11.90;99.90;;;;;;5153560;27;20221;-76
2022/11/03 00:38:27;;;;;;;6.10;5.43;;;11.80;99.90;;;;;;5154300;27;20227;-77
2022/11/03 00:40:58;;;;;;;5.68;4.30;;;11.80;99.90;;;;;;5153393;27;20588;-79
2022/11/03 00:43:27;;;;;;;6.93;5.53;;;11.80;99.90;;;;;;5154523;27;20225;-77
2022/11/03 00:45:54;;;;;;;7.43;5.40;;;11.70;99.90;;;;;;5153749;27;20221;-76
2022/11/03 00:48:31;;;;;;;7.07;4.97;;;11.70;99.90;;;;;;5154300;27;20346;-76
2022/11/03 00:51:07;;;;;;;5.00;4.50;;;11.70;99.90;;;;;;5140793;27;20565;-76
2022/11/03 00:53:37;;;;;;;5.90;4.72;;;11.70;99.90;;;;;;5154028;27;20232;-76
2022/11/03 00:56:07;;;;;;;6.57;5.20;;;11.70;99.90;;;;;;5142992;27;20300;-76
2022/11/03 00:58:35;;;;;;;9.40;4.85;;;11.70;99.90;;;;;;5146821;27;20401;-79
2022/11/03 01:01:04;;;;;;;7.35;5.05;;;11.70;99.90;;;;;;5132118;27;20247;-79
2022/11/03 01:03:32;;;;;;;6.43;5.03;;;11.70;99.90;;;;;;5139770;27;20240;-76
2022/11/03 01:08:44;;;;;;;5.82;4.40;;;11.60;99.90;;;;;;5153329;27;20227;-78
2022/11/03 01:14:00;;;;;;;6.13;4.85;;;11.60;99.90;;;;;;5139955;27;20291;-77
2022/11/03 01:16:27;;;;;;;6.03;4.68;;;11.60;99.90;;;;;;5147580;27;20230;-77
2022/11/03 01:18:55;;;;;;;10.20;4.75;;;11.60;99.90;;;;;;5135028;27;20245;-77
2022/11/03 01:21:23;;;;;;;6.28;4.78;;;11.50;99.90;;;;;;5139220;27;20624;-81
2022/11/03 01:23:52;;;;;;;6.57;4.13;;;11.50;99.90;;;;;;5140785;27;20226;-80
2022/11/03 01:26:21;;;;;;;7.57;4.93;;;11.50;99.90;;;;;;5147031;27;20242;-77
2022/11/03 01:28:49;;;;;;;6.25;3.88;;;11.40;99.90;;;;;;5129947;27;20214;-77
2022/11/03 01:31:20;;;;;;;7.18;4.20;;;11.40;99.90;;;;;;5127530;27;20308;-80
2022/11/03 01:33:49;;;;;;;4.78;4.30;;;11.40;99.90;;;;;;5139477;27;20241;-80
2022/11/03 01:36:17;;;;;;;5.47;3.55;;;11.40;99.90;;;;;;5146634;27;20222;-80
2022/11/03 01:38:45;;;;;;;4.70;3.53;;;11.40;99.90;;;;;;5149788;27;20308;-77
2022/11/03 01:41:15;;;;;;;5.00;3.53;;;11.40;99.90;;;;;;5138287;27;20559;-79
2022/11/03 01:43:44;;;;;;;5.72;3.55;;;11.40;99.90;;;;;;5150869;27;20228;-79
2022/11/03 01:46:18;;;;;;;5.72;4.20;;;11.30;99.90;;;;;;5147777;27;20281;-77
2022/11/03 01:48:51;;;;;;;5.85;3.83;;;11.30;99.90;;;;;;5143184;27;20233;-77
2022/11/03 01:51:23;;;;;;;7.70;3.83;;;11.30;99.90;;;;;;5145654;27;20230;-79
2022/11/03 01:53:54;;;;;;;5.18;3.28;;;11.20;99.90;;;;;;5154082;27;20706;-80
2022/11/03 01:56:22;;;;;;;4.65;3.70;;;11.20;99.90;;;;;;5157835;27;20225;-77
2022/11/03 01:58:54;;;;;;;4.50;3.13;;;11.20;99.90;;;;;;5146530;27;20226;-80
2022/11/03 02:01:26;;;;;;;3.50;3.20;;;11.20;99.90;;;;;;5156021;27;20285;-80
2022/11/03 02:04:02;;;;;;;6.05;3.05;;;11.20;99.90;;;;;;5142720;27;20221;-77
2022/11/03 02:06:31;;;;;;;9.57;4.05;;;11.20;99.90;;;;;;5156559;27;20216;-77
2022/11/03 02:09:04;;;;;;;8.05;3.40;;;11.20;99.90;;;;;;5156321;27;20243;-77
2022/11/03 02:14:19;;;;;;;3.80;3.40;;;11.20;99.90;;;;;;5156677;27;20227;-77
2022/11/03 02:16:51;;;;;;;7.13;3.25;;;11.20;99.90;;;;;;5157651;27;20300;-80
2022/11/03 02:19:28;;;;;;;6.97;3.22;;;11.10;99.90;;;;;;5157202;27;20218;-77
2022/11/03 02:22:00;;;;;;;4.82;3.15;;;11.10;99.90;;;;;;5157526;27;20228;-80
2022/11/03 02:24:34;;;;;;;2.90;2.65;;;11.00;99.90;;;;;;5156993;27;20217;-79
2022/11/03 02:27:04;;;;;;;5.43;3.47;;;10.90;99.90;;;;;;5155775;27;20289;-80
2022/11/03 02:29:31;;;;;;;6.53;3.55;;;10.90;99.90;;;;;;5156191;27;20304;-77
2022/11/03 02:32:05;;;;;;;4.28;2.88;;;10.90;99.90;;;;;;5157431;27;20249;-78
2022/11/03 02:34:39;;;;;;;5.10;3.80;;;10.90;99.90;;;;;;5147461;27;20213;-80
2022/11/03 02:37:14;;;;;;;4.75;2.90;;;10.90;99.90;;;;;;5157237;27;20232;-78
2022/11/03 02:39:44;;;;;;;5.80;3.22;;;10.90;99.90;;;;;;5156307;27;20244;-80
2022/11/03 02:42:16;;;;;;;4.07;3.67;;;10.90;99.90;;;;;;5144658;27;20232;-80
2022/11/03 02:44:45;;;;;;;5.55;4.00;;;10.80;99.90;;;;;;5158339;27;20217;-81
2022/11/03 02:47:17;;;;;;;10.27;3.33;;;10.90;99.90;;;;;;5161933;27;20217;-80
2022/11/03 02:49:47;;;;;;;8.25;3.75;;;10.90;99.90;;;;;;5159764;27;20217;-80
2022/11/03 02:52:36;;;;;;;5.80;3.10;;;10.80;99.90;;;;;;5159801;27;20237;-78
2022/11/03 02:55:10;;;;;;;5.60;4.00;;;10.80;99.90;;;;;;5154702;27;20217;-80
2022/11/03 02:57:46;;;;;;;7.50;3.33;;;10.80;99.90;;;;;;5155685;27;20292;-80
2022/11/03 03:00:16;;;;;;;5.00;2.72;;;10.80;99.90;;;;;;5156450;27;20285;-79
2022/11/03 03:02:52;;;;;;;6.07;3.60;;;10.70;99.90;;;;;;5156865;27;20702;-79
2022/11/03 03:05:26;;;;;;;5.38;3.38;;;10.70;99.90;;;;;;5156021;27;20252;-80
2022/11/03 03:07:58;;;;;;;4.63;3.13;;;10.70;99.90;;;;;;5156842;27;20209;-81
2022/11/03 03:10:30;;;;;;;4.70;3.10;;;10.70;99.90;;;;;;5156118;27;20214;-80
2022/11/03 03:13:00;;;;;;;5.63;3.15;;;10.70;99.90;;;;;;5156628;27;20304;-79
2022/11/03 03:15:37;;;;;;;5.45;2.58;;;10.60;99.90;;;;;;5154809;27;20277;-81
2022/11/03 03:18:15;;;;;;;5.82;3.40;;;10.70;99.90;;;;;;5155808;27;20539;-78
2022/11/03 03:20:51;;;;;;;3.67;2.97;;;10.70;99.90;;;;;;5156469;27;20594;-80
2022/11/03 03:23:21;;;;;;;4.22;3.10;;;10.70;99.90;;;;;;5144820;27;20260;-80
2022/11/03 03:25:53;;;;;;;4.57;2.97;;;10.70;99.90;;;;;;5155055;27;20221;-78
2022/11/03 03:28:28;;;;;;;6.95;3.17;;;10.70;99.90;;;;;;5144429;27;20228;-78
2022/11/03 03:30:57;;;;;;;9.20;3.20;;;10.70;99.90;;;;;;5156217;27;20221;-79
2022/11/03 03:33:28;;;;;;;4.93;3.28;;;10.60;99.90;;;;;;5153384;27;20686;-78
2022/11/03 03:35:57;;;;;;;4.53;3.20;;;10.60;99.90;;;;;;5155783;27;20217;-78
2022/11/03 03:38:30;;;;;;;4.40;3.30;;;10.60;99.90;;;;;;5155373;27;20267;-80
2022/11/03 03:41:01;;;;;;;9.13;4.40;;;10.60;99.90;;;;;;5155356;27;20229;-78
2022/11/03 03:43:32;;;;;;;3.95;3.00;;;10.60;99.90;;;;;;5154819;27;20566;-78
2022/11/03 03:46:05;;;;;;;7.50;3.65;;;10.60;99.90;;;;;;5155881;27;20221;-80
2022/11/03 03:48:33;;;;;;;4.43;2.80;;;10.60;99.90;;;;;;5155146;27;20221;-80
2022/11/03 03:51:02;;;;;;;5.68;3.30;;;10.60;99.90;;;;;;5155738;27;20285;-80
2022/11/03 03:53:30;;;;;;;6.80;3.60;;;10.60;99.90;;;;;;5155122;27;20221;-80
2022/11/03 03:55:59;;;;;;;6.75;3.72;;;10.60;99.90;;;;;;5155544;27;20221;-77
2022/11/03 03:58:26;;;;;;;4.30;3.20;;;10.70;99.90;;;;;;5154317;27;20407;-80
2022/11/03 04:00:55;;;;;;;4.20;2.90;;;10.60;99.90;;;;;;5155489;27;20666;-80
2022/11/03 04:03:25;;;;;;;4.65;3.28;;;10.70;99.90;;;;;;5141900;27;20674;-77
2022/11/03 04:05:54;;;;;;;6.03;3.03;;;10.70;99.90;;;;;;5157015;27;20217;-79
2022/11/03 04:08:31;;;;;;;5.80;3.08;;;10.70;99.90;;;;;;5156378;27;20543;-77
2022/11/03 04:22:20;;;;;;;5.97;2.92;;;10.70;99.90;;;;;;5155292;27;20353;-79
2022/11/03 04:24:49;;;;;;;3.47;2.35;;;10.70;99.90;;;;;;5156334;27;20707;-78
2022/11/03 04:27:35;;;;;;;3.38;2.85;;;10.60;99.90;;;;;;5155572;27;20592;-78
2022/11/03 04:30:18;;;;;;;6.82;3.17;;;10.70;99.90;;;;;;5154290;27;20213;-76
2022/11/03 04:32:48;;;;;;;5.07;3.25;;;10.70;99.90;;;;;;5153287;27;20682;-78
2022/11/03 04:35:17;;;;;;;6.20;3.28;;;10.70;99.90;;;;;;5154623;27;20300;-77
2022/11/03 04:37:45;;;;;;;4.85;3.55;;;10.70;99.90;;;;;;5154983;27;20232;-77
2022/11/03 04:40:22;;;;;;;5.03;3.95;;;10.70;99.90;;;;;;5154450;27;20596;-76
2022/11/03 04:42:50;;;;;;;7.63;3.88;;;10.70;99.90;;;;;;5154846;27;20220;-78
2022/11/03 04:45:26;;;;;;;5.28;4.20;;;10.70;99.90;;;;;;5153872;27;20229;-77
2022/11/03 04:47:55;;;;;;;4.20;3.33;;;10.70;99.90;;;;;;5154145;27;20244;-77
2022/11/03 04:50:25;;;;;;;8.23;3.65;;;10.70;99.90;;;;;;5153793;27;20233;-76
2022/11/03 04:52:56;;;;;;;4.47;3.08;;;10.60;99.90;;;;;;5144817;27;20221;-80
2022/11/03 04:55:30;;;;;;;7.03;3.10;;;10.60;99.90;;;;;;5153296;27;20248;-77
2022/11/03 04:58:00;;;;;;;5.00;3.22;;;10.60;99.90;;;;;;5154610;27;20682;-79
2022/11/03 05:00:29;;;;;;;7.15;3.50;;;10.60;99.90;;;;;;5152842;27;20710;-77
2022/11/03 05:02:57;;;;;;;6.15;3.40;;;10.50;99.90;;;;;;5154214;27;20225;-77
2022/11/03 05:05:26;;;;;;;3.50;2.75;;;10.60;99.90;;;;;;5152017;27;20236;-80
2022/11/03 05:07:56;;;;;;;5.00;3.10;;;10.50;99.90;;;;;;5154251;27;20217;-77
2022/11/03 05:10:26;;;;;;;5.95;3.38;;;10.60;99.90;;;;;;5154633;27;20225;-79
2022/11/03 05:12:54;;;;;;;10.48;3.92;;;10.50;99.90;;;;;;5158373;27;20223;-79
2022/11/03 05:15:30;;;;;;;6.75;3.50;;;10.60;99.90;;;;;;5158284;27;20220;-77
2022/11/03 05:18:00;;;;;;;7.10;3.78;;;10.60;99.90;;;;;;5158066;27;20217;-80
2022/11/03 05:20:32;;;;;;;5.00;4.18;;;10.60;99.90;;;;;;5157527;27;20273;-80
2022/11/03 05:23:00;;;;;;;10.63;3.80;;;10.60;99.90;;;;;;5158438;27;20217;-80
2022/11/03 05:25:41;;;;;;;4.85;3.10;;;10.50;99.90;;;;;;5157298;27;20633;-79
2022/11/03 05:28:21;;;;;;;6.53;3.25;;;10.50;99.90;;;;;;5158398;27;20232;-79
2022/11/03 05:30:49;;;;;;;7.00;4.03;;;10.60;99.90;;;;;;5159292;27;20550;-78
2022/11/03 05:33:22;;;;;;;6.93;4.07;;;10.50;99.90;;;;;;5159073;27;20233;-78
2022/11/03 05:35:50;;;;;;;8.40;4.90;;;10.50;99.90;;;;;;5158671;27;20217;-77
2022/11/03 05:38:22;;;;;;;9.88;5.70;;;10.40;99.90;;;;;;5158178;27;20228;-77
2022/11/03 05:40:51;;;;;;;5.53;4.15;;;10.40;99.90;;;;;;5158405;27;20225;-76
2022/11/03 05:43:19;;;;;;;8.77;6.03;;;10.30;99.90;;;;;;5157540;27;20225;-76
2022/11/03 05:45:48;;;;;;;5.57;4.00;;;10.30;99.90;;;;;;5147177;27;20308;-76
2022/11/03 05:48:24;;;;;;;7.95;3.90;;;10.30;99.90;;;;;;5156990;27;20221;-77
2022/11/03 05:50:52;;;;;;;5.30;3.85;;;10.20;99.90;;;;;;5158093;27;20224;-76
2022/11/03 05:53:29;;;;;;;6.60;4.65;;;10.30;99.90;;;;;;5157308;27;20240;-77
2022/11/03 05:56:01;;;;;;;5.60;3.85;;;10.30;99.90;;;;;;5140509;27;20599;-79
2022/11/03 05:58:35;;;;;;;7.70;4.88;;;10.20;99.90;;;;;;5138474;27;20727;-77
2022/11/03 06:01:14;;;;;;;13.52;4.32;;;10.30;99.90;;;;;;5137251;27;20325;-77
2022/11/03 06:03:43;;;;;;;5.50;5.00;;;10.20;99.90;;;;;;5136392;27;20221;-78
2022/11/03 06:06:20;;;;;;;4.68;3.55;;;10.20;99.90;;;;;;5136688;27;20249;-77
2022/11/03 06:08:50;;;;;;;9.20;4.53;;;10.20;99.90;;;;;;5137142;27;20225;-79
2022/11/03 06:11:26;;;;;;;11.80;5.00;;;10.10;99.90;;;;;;5136765;27;20328;-79
2022/11/03 06:13:57;;;;;;;7.13;5.15;;;10.10;99.90;;;;;;5137505;27;20304;-79
2022/11/03 06:16:36;;;;;;;11.07;5.78;;;10.20;99.90;;;;;;5137387;27;20287;-79
2022/11/03 06:19:17;;;;;;;12.00;5.72;;;10.10;99.90;;;;;;5136815;27;20222;-77
2022/11/03 06:21:45;;;;;;;8.30;5.95;;;10.10;99.90;;;;;;5136163;27;20256;-79
2022/11/03 06:24:23;;;;;;;8.40;5.70;;;10.10;99.90;;;;;;5136456;27;20242;-76
2022/11/03 06:26:51;;;;;;;9.98;6.05;;;10.20;99.90;;;;;;5136454;27;20271;-76
2022/11/03 06:29:20;;;;;;;8.23;4.70;;;10.10;99.90;;;;;;5137082;27;20221;-78
2022/11/03 06:31:49;;;;;;;8.50;4.07;;;10.20;99.90;;;;;;5136556;27;20312;-78
2022/11/03 06:34:29;;;;;;;4.80;3.72;;;10.20;99.90;;;;;;5136844;27;20669;-77
2022/11/03 06:36:57;;;;;;;10.10;4.35;;;10.20;99.90;;;;;;5135960;27;20225;-78
2022/11/03 06:39:28;;;;;;;8.05;5.25;;;10.20;99.90;;;;;;5136364;27;20226;-77
2022/11/03 06:42:03;;;;;;;7.18;4.75;;;10.20;99.90;;;;;;5136138;27;20304;-78
2022/11/03 06:44:38;;;;;;;10.63;5.78;;;10.20;99.90;;;;;;5136551;27;20712;-79
2022/11/03 06:47:31;;;;;;;7.07;3.88;;;10.20;99.90;;;;;;5135532;27;20221;-77
2022/11/03 06:50:03;;;;;;;11.05;4.50;;;10.20;99.90;;;;;;5135481;27;20271;-76
2022/11/03 06:52:32;;;;;;;8.95;4.60;;;10.20;99.90;;;;;;5136142;27;20234;-77
2022/11/03 06:55:20;;;;;;;5.53;4.22;;;10.20;99.90;;;;;;5147502;27;20348;-77
2022/11/03 06:57:48;;;;;;;5.05;4.55;;;10.20;99.90;;;;;;5156388;27;20225;-79
2022/11/03 07:00:29;;;;;;;10.32;4.32;;;10.20;99.90;;;;;;5156720;27;20559;-78
2022/11/03 07:03:01;;;;;;;7.38;3.92;;;10.20;99.90;;;;;;5146929;27;20270;-79
2022/11/03 07:05:32;;;;;;;6.40;4.20;;;10.20;99.90;;;;;;5156381;27;20225;-79
2022/11/03 07:08:22;;;;;;;6.53;4.10;;;10.20;99.90;;;;;;5155590;27;20228;-77
2022/11/03 07:10:51;;;;;;;8.20;5.03;;;10.20;99.90;;;;;;5146445;27;20237;-78
2022/11/03 07:13:23;;;;;;;7.68;4.68;;;10.20;99.90;;;;;;5155630;27;20301;-77
2022/11/03 07:15:51;;;;;;;6.68;4.10;;;10.20;99.90;;;;;;5156027;27;20305;-77
2022/11/03 07:18:23;;;;;;;6.38;5.13;;;10.20;99.90;;;;;;5155742;27;20312;-79
2022/11/03 07:20:53;;;;;;;8.80;5.00;;;10.20;99.90;;;;;;5145646;27;20223;-78
2022/11/03 07:23:24;;;;;;;8.77;4.05;;;10.20;99.90;;;;;;5155493;27;20228;-79
2022/11/03 07:25:54;;;;;;;10.10;4.80;;;10.20;99.90;;;;;;5154642;27;20229;-79
2022/11/03 07:28:29;;;;;;;9.85;5.22;;;10.20;99.90;;;;;;5155989;27;20213;-77
2022/11/03 07:31:09;;;;;;;13.32;5.35;;;10.30;99.90;;;;;;5156159;27;20216;-77
2022/11/03 07:33:36;;;;;;;10.50;5.70;;;10.30;99.90;;;;;;5146673;27;20698;-77
2022/11/03 07:36:08;;;;;;;12.38;6.50;;;10.40;99.90;;;;;;5154893;27;20720;-77
2022/11/03 07:38:38;;;;;;;10.77;6.22;;;10.40;99.90;;;;;;5144422;27;20232;-77
2022/11/03 07:41:12;;;;;;;9.45;5.45;;;10.50;99.90;;;;;;5146287;27;20233;-79
2022/11/03 07:43:39;;;;;;;10.55;5.05;;;10.60;99.90;;;;;;5155821;27;20232;-79
2022/11/03 07:46:14;;;;;;;13.02;5.18;;;10.60;99.90;;;;;;5155132;27;20263;-79
2022/11/03 07:48:47;;;;;;;8.10;3.97;;;10.60;99.90;;;;;;5156031;27;20217;-79
2022/11/03 07:51:25;;;;;;;7.35;4.18;;;10.70;99.90;;;;;;5155388;27;20297;-77
2022/11/03 07:53:57;;;;;;;6.03;4.07;;;10.80;99.90;;;;;;5154747;27;20599;-77
2022/11/03 07:56:26;;;;;;;5.40;3.95;;;10.80;99.90;;;;;;5155589;27;20286;-77
2022/11/03 07:58:58;;;;;;;9.50;4.15;;;10.90;99.90;;;;;;5154876;27;20241;-78
2022/11/03 08:01:28;;;;;;;9.35;4.05;;;11.00;99.90;;;;;;5155600;27;20538;-77
2022/11/03 08:04:00;;;;;;;6.57;3.90;;;11.00;99.90;;;;;;5154713;27;20221;-77
2022/11/03 08:06:29;;;;;;;6.97;4.20;;;11.10;99.90;;;;;;5144816;27;20220;-77
2022/11/03 08:08:56;;;;;;;3.55;3.00;;;11.10;99.90;;;;;;5153725;27;20220;-80
2022/11/03 08:11:24;;;;;;;8.82;3.13;;;11.20;99.90;;;;;;5154819;27;20281;-80
2022/11/03 08:13:54;;;;;;;4.85;3.90;;;11.20;99.90;;;;;;5155184;27;20221;-78
2022/11/03 08:16:22;;;;;;;6.68;4.15;;;11.30;99.90;;;;;;5154875;27;20221;-78
2022/11/03 08:18:49;;;;;;;7.82;4.15;;;11.30;99.90;;;;;;5154168;27;20217;-77
2022/11/03 08:21:17;;;;;;;8.27;5.20;;;11.30;99.90;;;;;;5154418;27;20296;-80
2022/11/03 08:23:45;;;;;;;7.57;4.22;;;11.30;99.90;;;;;;5155207;27;20221;-78
2022/11/03 08:26:12;;;;;;;8.32;6.05;;;11.40;99.90;;;;;;5153963;27;20253;-77
2022/11/03 08:28:40;;;;;;;14.32;6.47;;;11.40;99.90;;;;;;5155332;27;20293;-78
2022/11/03 08:31:10;;;;;;;9.65;5.05;;;11.40;99.90;;;;;;5155362;27;20689;-80
2022/11/03 08:33:37;;;;;;;8.68;6.75;;;11.40;99.90;;;;;;5154463;27;20300;-79
2022/11/03 08:36:07;;;;;;;9.88;7.05;;;11.50;99.90;;;;;;5153851;27;20304;-77
2022/11/03 08:38:35;;;;;;;7.22;4.25;;;11.50;99.90;;;;;;5155177;27;20221;-80
2022/11/03 08:41:04;;;;;;;6.57;3.90;;;11.50;99.90;;;;;;5153016;27;20671;-79
2022/11/03 08:43:31;;;;;;;6.30;3.80;;;11.60;99.90;;;;;;5152536;27;20254;-79
2022/11/03 08:45:58;;;;;;;3.67;2.85;;;11.50;99.90;;;;;;5154351;27;20220;-77
2022/11/03 08:48:29;;;;;;;7.40;3.30;;;11.60;99.90;;;;;;5153823;27;20221;-79
2022/11/03 08:50:56;;;;;;;7.53;3.03;;;11.60;99.90;;;;;;5154912;27;20525;-79
2022/11/03 08:53:25;;;;;;;11.00;3.70;;;11.60;99.90;;;;;;5154250;27;20229;-81
2022/11/03 08:55:54;;;;;;;4.00;3.60;;;11.70;99.90;;;;;;5154518;27;20248;-78
2022/11/03 08:58:26;;;;;;;6.05;4.20;;;11.70;99.90;;;;;;5142470;27;20221;-78
2022/11/03 09:00:53;;;;;;;4.97;3.28;;;11.70;99.90;;;;;;5154970;27;20281;-79
2022/11/03 09:03:22;;;;;;;8.13;3.67;;;11.80;99.90;;;;;;5155633;27;20329;-79
2022/11/03 09:05:49;;;;;;;7.15;4.25;;;11.80;99.90;;;;;;5156008;27;20236;-80
2022/11/03 09:08:16;;;;;;;3.72;3.22;;;11.80;99.90;;;;;;5155868;27;20245;-79
2022/11/03 09:10:46;;;;;;;7.35;3.83;;;11.90;99.90;;;;;;5154725;27;20229;-78
2022/11/03 09:13:13;;;;;;;9.02;4.28;;;12.00;99.90;;;;;;5157740;27;20696;-80
2022/11/03 09:15:41;;;;;;;6.70;4.95;;;12.00;99.90;;;;;;5157256;27;20296;-77
2022/11/03 09:18:17;;;;;;;5.97;3.65;;;12.10;99.90;;;;;;5154826;27;20259;-77
2022/11/03 09:20:44;;;;;;;7.80;3.97;;;12.10;99.90;;;;;;5156071;27;20217;-78
2022/11/03 09:23:11;;;;;;;6.15;3.28;;;12.20;99.90;;;;;;5155540;27;20305;-77
2022/11/03 09:25:38;;;;;;;8.35;3.05;;;12.20;99.90;;;;;;5155416;27;20221;-78
2022/11/03 09:28:05;;;;;;;9.43;4.30;;;12.20;99.90;;;;;;5156236;27;20240;-79
2022/11/03 09:30:32;;;;;;;4.78;3.40;;;12.30;99.90;;;;;;5156207;27;20221;-79
2022/11/03 09:33:00;;;;;;;6.10;3.45;;;12.40;99.90;;;;;;5155302;27;20260;-79
2022/11/03 09:35:29;;;;;;;5.30;3.05;;;12.40;99.90;;;;;;5154276;27;20308;-77
2022/11/03 09:37:56;;;;;;;5.38;2.90;;;12.40;99.90;;;;;;5155241;27;20553;-77
2022/11/03 09:40:24;;;;;;;7.25;3.33;;;12.50;99.90;;;;;;5155452;27;20221;-77
2022/11/03 09:42:51;;;;;;;6.13;3.58;;;12.60;99.90;;;;;;5155492;27;20239;-78
2022/11/03 09:45:21;;;;;;;6.63;2.92;;;12.60;99.90;;;;;;5155588;27;20320;-80
2022/11/03 09:47:50;;;;;;;5.70;2.60;;;12.70;99.90;;;;;;5155316;27;20249;-80
2022/11/03 09:50:20;;;;;;;7.78;3.50;;;12.70;99.90;;;;;;5156365;27;20395;-80
2022/11/03 09:52:53;;;;;;;9.95;5.88;;;12.80;99.90;;;;;;5144583;27;20226;-79
2022/11/03 09:55:23;;;;;;;11.32;7.50;;;12.80;99.90;;;;;;5155579;27;20686;-79
2022/11/03 09:57:55;;;;;;;9.30;4.32;;;12.80;99.90;;;;;;5156825;27;20292;-79
2022/11/03 10:00:25;;;;;;;10.15;6.05;;;12.90;99.90;;;;;;5159835;27;20531;-79
2022/11/03 10:02:53;;;;;;;7.53;4.78;;;13.00;99.90;;;;;;5149101;27;20742;-79
2022/11/03 10:05:25;;;;;;;8.10;3.22;;;13.00;99.90;;;;;;5159782;27;20228;-77
2022/11/03 10:07:56;;;;;;;6.80;3.50;;;13.00;99.90;;;;;;5159391;27;20264;-78
2022/11/03 10:10:25;;;;;;;6.53;3.58;;;13.10;99.90;;;;;;5157841;27;20515;-80
2022/11/03 10:12:52;;;;;;;6.70;3.85;;;13.20;99.90;;;;;;5158812;27;20254;-80
2022/11/03 10:15:22;;;;;;;4.10;3.67;;;13.10;99.90;;;;;;5158963;27;20548;-78
2022/11/03 10:17:50;;;;;;;8.68;3.72;;;13.20;99.90;;;;;;5158793;27;20583;-78
2022/11/03 10:20:21;;;;;;;13.27;4.43;;;13.30;99.90;;;;;;5161061;27;20221;-79
2022/11/03 10:22:53;;;;;;;6.43;2.88;;;13.30;99.90;;;;;;5159569;27;20613;-79
2022/11/03 10:25:35;;;;;;;3.65;2.92;;;13.40;99.90;;;;;;5157931;27;20249;-78
2022/11/03 10:28:17;;;;;;;6.40;2.72;;;13.40;99.90;;;;;;5156973;27;20213;-77
2022/11/03 10:30:53;;;;;;;8.57;3.88;;;13.40;99.90;;;;;;5158103;27;20243;-78
2022/11/03 10:33:28;;;;;;;10.18;3.47;;;13.50;99.90;;;;;;5159265;27;20577;-76
2022/11/03 10:35:57;;;;;;;3.55;2.47;;;13.50;99.90;;;;;;5157669;27;20225;-77
2022/11/03 10:38:33;;;;;;;3.85;2.80;;;13.50;99.90;;;;;;5158554;27;20221;-76
2022/11/03 10:41:14;;;;;;;12.00;3.47;;;13.60;99.90;;;;;;5157811;27;20312;-77
2022/11/03 10:43:42;;;;;;;7.47;3.03;;;13.60;99.90;;;;;;5157804;27;20236;-77
2022/11/03 10:46:15;;;;;;;4.75;3.35;;;13.60;99.90;;;;;;5157321;27;20232;-77
2022/11/03 10:48:42;;;;;;;6.03;3.00;;;13.70;99.90;;;;;;5156646;27;20412;-77
2022/11/03 10:51:12;;;;;;;10.73;3.67;;;13.70;99.90;;;;;;5157132;27;20610;-77
2022/11/03 10:53:42;;;;;;;9.18;2.95;;;13.70;99.90;;;;;;5156606;27;20242;-79
2022/11/03 10:56:09;;;;;;;6.72;2.60;;;13.80;99.90;;;;;;5155587;27;20562;-76
2022/11/03 10:58:36;;;;;;;5.87;2.87;;;13.90;99.90;;;;;;5156736;27;20313;-79
2022/11/03 11:01:06;;;;;;;3.87;2.70;;;13.90;99.90;;;;;;5155033;27;20609;-78
2022/11/03 11:03:34;;;;;;;7.22;3.08;;;13.90;99.90;;;;;;5159147;27;20477;-79
2022/11/03 11:06:03;;;;;;;11.67;5.10;;;14.00;99.90;;;;;;5156893;27;20218;-79
2022/11/03 11:08:29;;;;;;;11.90;3.47;;;14.00;99.90;;;;;;5158391;27;20462;-79
2022/11/03 11:10:58;;;;;;;5.90;3.73;;;14.10;99.90;;;;;;5156629;27;20601;-79
2022/11/03 11:13:29;;;;;;;6.00;2.70;;;14.10;99.90;;;;;;5156637;27;20558;-80
2022/11/03 11:16:04;;;;;;;4.33;2.93;;;14.20;99.90;;;;;;5155897;27;20466;-80
2022/11/03 11:19:07;;;;;;;10.20;3.37;;;14.20;99.90;;;;;;5156144;27;20462;-79
2022/11/03 11:21:58;;;;;;;5.33;3.00;;;14.20;99.90;;;;;;5155523;27;20470;-79
2022/11/03 11:25:00;;;;;;;4.63;3.08;;;14.20;99.90;;;;;;5124202;27;20463;-80
2022/11/03 11:28:06;;;;;;;4.63;2.43;;;14.20;99.90;;;;;;5156110;27;20220;-79
2022/11/03 11:31:00;;;;;;;5.73;2.33;;;14.30;99.90;;;;;;5156528;27;20462;-80
2022/11/03 11:33:37;;;;;;;6.80;2.57;;;14.30;99.90;;;;;;5147543;27;20545;-79
2022/11/03 11:36:24;;;;;;;3.53;2.43;;;14.40;99.90;;;;;;5156408;27;20852;-78
2022/11/03 11:39:11;;;;;;;5.87;3.00;;;14.30;99.90;;;;;;5156067;27;20454;-79
2022/11/03 11:42:47;;;;;;;6.73;3.03;;;14.40;99.90;;;;;;5164474;27;20462;-79
2022/11/03 11:46:00;;;;;;;4.50;3.43;;;14.30;99.90;;;;;;5085583;28;20445;-77
2022/11/03 11:48:27;;;;;;;6.03;2.80;;;14.40;99.90;;;;;;5093712;28;20437;-77
2022/11/03 11:50:57;;;;;;;4.43;3.00;;;14.30;99.90;;;;;;5147643;27;20482;-77
2022/11/03 11:53:25;;;;;;;8.23;2.83;;;14.30;99.90;;;;;;5154918;27;20624;-76
2022/11/03 11:55:56;;;;;;;8.23;3.17;;;14.30;99.90;;;;;;5155397;27;20580;-78
2022/11/03 11:58:29;;;;;;;3.53;2.50;;;14.30;99.90;;;;;;5154507;27;20530;-76
2022/11/03 12:01:01;;;;;;;2.70;2.30;;;14.30;99.90;;;;;;5155500;27;20551;-79
2022/11/03 12:03:38;;;;;;;6.13;3.70;;;14.30;99.90;;;;;;5156564;27;21048;-79
2022/11/03 12:06:37;;;;;;;9.47;3.90;;;14.30;99.90;;;;;;5145392;27;20491;-78
2022/11/03 12:09:11;;;;;;;4.33;2.90;;;14.30;99.90;;;;;;5146679;27;20566;-78
2022/11/03 12:11:43;;;;;;;4.73;3.30;;;14.30;99.90;;;;;;5154636;27;20458;-78
2022/11/03 12:14:28;;;;;;;5.13;2.87;;;14.30;99.90;;;;;;5156579;27;20466;-79
2022/11/03 12:16:56;;;;;;;8.80;2.90;;;14.30;99.90;;;;;;5155788;27;20455;-80
2022/11/03 12:19:34;;;;;;;6.33;3.00;;;14.30;99.90;;;;;;5155608;27;20450;-80
2022/11/03 12:22:02;;;;;;;4.00;2.30;;;14.30;99.90;;;;;;5146090;27;20959;-80
2022/11/03 12:24:50;;;;;;;2.63;2.00;;;14.20;99.90;;;;;;5155283;27;20476;-77
2022/11/03 12:27:34;;;;;;;3.77;2.60;;;14.30;99.90;;;;;;5153462;27;20495;-77
2022/11/03 12:30:07;;;;;;;4.30;2.50;;;14.30;99.90;;;;;;5137340;27;20792;-78
2022/11/03 12:32:34;;;;;;;5.03;2.43;;;14.30;99.90;;;;;;5155032;27;20508;-76
2022/11/03 12:35:01;;;;;;;4.83;2.53;;;14.30;99.90;;;;;;5154300;27;20523;-76
2022/11/03 12:37:31;;;;;;;6.67;2.60;;;14.30;99.90;;;;;;5144285;27;20621;-76
2022/11/03 12:39:59;;;;;;;6.67;3.70;;;14.40;99.90;;;;;;5154197;27;20463;-77
2022/11/03 12:42:27;;;;;;;15.23;4.10;;;14.40;99.90;;;;;;5154184;27;20526;-79
2022/11/03 12:44:54;;;;;;;13.63;4.57;;;14.40;99.90;;;;;;5154321;27;20462;-78
2022/11/03 12:47:22;;;;;;;9.80;3.87;;;14.40;99.90;;;;;;5154610;27;20530;-79
2022/11/03 12:49:49;;;;;;;4.80;2.80;;;14.40;99.90;;;;;;5154850;27;20463;-77
2022/11/03 12:52:16;;;;;;;7.87;2.60;;;14.40;99.90;;;;;;5154443;27;20491;-79
2022/11/03 12:54:48;;;;;;;7.67;3.63;;;14.40;99.90;;;;;;5154203;27;20471;-79
2022/11/03 12:57:16;;;;;;;5.43;2.67;;;14.30;99.90;;;;;;5153976;27;20471;-79
2022/11/03 12:59:43;;;;;;;4.07;2.93;;;14.30;99.90;;;;;;5154285;27;20494;-79
2022/11/03 13:02:11;;;;;;;4.70;2.63;;;14.30;99.90;;;;;;5153560;27;20478;-79
2022/11/03 13:04:40;;;;;;;6.93;2.90;;;14.30;99.90;;;;;;5154613;27;20858;-80
2022/11/03 13:07:07;;;;;;;3.80;2.50;;;14.40;99.90;;;;;;5154002;27;20471;-80
2022/11/03 13:09:35;;;;;;;11.50;4.07;;;14.40;99.90;;;;;;5154180;27;20443;-80
2022/11/03 13:14:47;;;;;;;3.77;2.70;;;14.50;99.90;;;;;;5122349;27;20466;-78
2022/11/03 13:17:14;;;;;;;11.20;3.40;;;14.50;99.90;;;;;;5153757;27;20604;-79
2022/11/03 13:19:41;;;;;;;5.03;3.20;;;14.50;99.90;;;;;;5154401;27;20523;-80
2022/11/03 13:22:10;;;;;;;5.73;3.23;;;14.50;99.90;;;;;;5152822;27;20494;-77
2022/11/03 13:24:40;;;;;;;7.43;3.03;;;14.50;99.90;;;;;;5154155;27;20467;-77
2022/11/03 13:27:07;;;;;;;4.40;2.77;;;14.40;99.90;;;;;;5153847;27;20466;-77
2022/11/03 13:29:35;;;;;;;7.43;3.23;;;14.50;99.90;;;;;;5154613;27;20465;-77
2022/11/03 13:32:03;;;;;;;5.67;2.43;;;14.50;99.90;;;;;;5155976;27;20463;-77